createdAt,value
2022-11-17T00:02:27.749Z,1.20
2022-11-17T00:05:15.588Z,1.67
2022-11-17T00:07:56.713Z,1.60
2022-11-17T00:10:36.611Z,1.50
2022-11-17T00:13:42.584Z,1.50
2022-11-17T00:16:24.598Z,1.67
2022-11-17T00:19:24.538Z,1.63
2022-11-17T00:22:04.597Z,2.10
2022-11-17T00:24:45.650Z,1.90
2022-11-17T00:27:25.585Z,2.20
2022-11-17T00:30:06.653Z,1.70
2022-11-17T00:33:05.582Z,1.88
2022-11-17T00:35:46.646Z,1.70
2022-11-17T00:38:27.607Z,1.95
2022-11-17T00:41:08.656Z,1.40
2022-11-17T00:43:48.572Z,2.00
2022-11-17T00:46:29.722Z,1.13
2022-11-17T00:49:12.612Z,1.70
2022-11-17T00:52:00.595Z,1.77
2022-11-17T00:54:40.581Z,1.60
2022-11-17T00:57:21.677Z,1.60
2022-11-17T01:00:01.580Z,1.60
2022-11-17T01:02:49.603Z,1.60
2022-11-17T01:05:23.519Z,1.80
2022-11-17T01:08:11.593Z,1.85
2022-11-17T01:10:45.553Z,1.63
2022-11-17T01:13:33.877Z,2.13
2022-11-17T01:16:14.303Z,1.98
2022-11-17T01:19:02.585Z,2.13
2022-11-17T01:21:37.552Z,1.60
2022-11-17T01:24:26.590Z,1.55
2022-11-17T01:27:20.578Z,1.88
2022-11-17T01:30:07.583Z,2.25
2022-11-17T01:32:41.610Z,2.05
2022-11-17T01:35:28.587Z,1.60
2022-11-17T01:38:02.711Z,1.85
2022-11-17T01:40:50.575Z,1.92
2022-11-17T01:43:24.669Z,2.13
2022-11-17T01:46:12.591Z,2.10
2022-11-17T01:48:53.610Z,1.73
2022-11-17T01:51:49.589Z,1.75
2022-11-17T01:54:46.568Z,2.00
2022-11-17T01:57:41.568Z,1.80
2022-11-17T02:00:16.662Z,1.40
2022-11-17T02:03:03.563Z,1.80
2022-11-17T02:06:02.616Z,1.80
2022-11-17T02:08:53.574Z,1.55
2022-11-17T02:11:35.576Z,1.77
2022-11-17T02:14:29.545Z,1.63
2022-11-17T02:17:17.554Z,1.80
2022-11-17T02:20:01.551Z,2.13
2022-11-17T02:23:26.556Z,1.77
2022-11-17T02:26:26.579Z,1.75
2022-11-17T02:29:34.558Z,1.90
2022-11-17T02:32:39.553Z,1.70
2022-11-17T02:35:16.632Z,1.67
2022-11-17T02:41:24.576Z,1.65
2022-11-17T02:44:25.543Z,1.50
2022-11-17T02:47:18.568Z,1.60
2022-11-17T02:49:54.647Z,1.77
2022-11-17T02:52:42.534Z,1.75
2022-11-17T02:55:17.645Z,1.35
2022-11-17T02:58:04.565Z,1.65
2022-11-17T03:00:50.593Z,1.77
2022-11-17T03:03:58.548Z,1.20
2022-11-17T03:06:53.598Z,2.10
2022-11-17T03:09:36.643Z,1.77
2022-11-17T03:12:30.576Z,1.50
2022-11-17T03:15:22.685Z,1.40
2022-11-17T03:18:10.569Z,2.10
2022-11-17T03:20:50.626Z,1.60
2022-11-17T03:23:55.551Z,1.60
2022-11-17T03:26:44.591Z,1.50
2022-11-17T03:29:41.563Z,1.50
2022-11-17T03:32:30.571Z,1.92
2022-11-17T03:35:08.701Z,1.83
2022-11-17T03:38:03.566Z,1.77
2022-11-17T03:40:54.577Z,1.42
2022-11-17T03:43:30.999Z,1.70
2022-11-17T03:46:23.581Z,1.58
2022-11-17T03:49:06.225Z,1.27
2022-11-17T03:51:53.594Z,1.70
2022-11-17T03:54:34.569Z,1.50
2022-11-17T03:57:15.664Z,1.55
2022-11-17T04:00:23.565Z,2.03
2022-11-17T04:03:04.641Z,1.80
2022-11-17T04:05:44.580Z,1.77
2022-11-17T04:08:29.510Z,1.65
2022-11-17T04:11:28.583Z,1.70
2022-11-17T04:14:34.557Z,1.85
2022-11-17T04:17:08.532Z,2.00
2022-11-17T04:19:56.581Z,1.95
2022-11-17T04:22:37.549Z,2.42
2022-11-17T04:25:38.623Z,2.03
2022-11-17T04:28:37.616Z,1.67
2022-11-17T04:31:25.770Z,1.88
2022-11-17T04:34:11.595Z,1.88
2022-11-17T04:36:52.657Z,2.08
2022-11-17T04:39:32.571Z,1.90
2022-11-17T04:42:13.630Z,1.65
2022-11-17T04:44:53.572Z,1.60
2022-11-17T04:47:41.588Z,1.63
2022-11-17T04:50:15.702Z,1.45
2022-11-17T04:53:03.561Z,1.45
2022-11-17T04:55:37.544Z,1.75
2022-11-17T04:58:25.579Z,1.85
2022-11-17T05:01:22.570Z,1.52
2022-11-17T05:04:14.594Z,1.52
2022-11-17T05:06:48.518Z,1.48
2022-11-17T05:09:36.589Z,1.33
2022-11-17T05:12:35.564Z,1.60
2022-11-17T05:15:36.618Z,1.50
2022-11-17T05:18:16.596Z,1.58
2022-11-17T05:20:57.639Z,2.20
2022-11-17T05:23:57.596Z,1.88
2022-11-17T05:26:39.720Z,1.77
2022-11-17T05:29:20.601Z,2.40
2022-11-17T05:32:01.720Z,2.92
2022-11-17T05:34:49.588Z,2.38
2022-11-17T05:37:30.694Z,2.15
2022-11-17T05:40:11.580Z,2.08
2022-11-17T05:42:59.583Z,2.30
2022-11-17T05:45:40.580Z,2.13
2022-11-17T05:48:28.584Z,1.83
2022-11-17T05:51:09.578Z,2.03
2022-11-17T05:53:57.599Z,1.25
2022-11-17T05:56:43.594Z,1.77
2022-11-17T05:59:49.588Z,2.00
2022-11-17T06:02:29.141Z,2.00
2022-11-17T06:05:20.292Z,1.88
2022-11-17T06:07:58.181Z,1.70
2022-11-17T06:10:45.587Z,1.45
2022-11-17T06:13:25.923Z,1.50
2022-11-17T06:16:15.618Z,2.40
2022-11-17T06:18:56.322Z,2.90
2022-11-17T06:22:10.534Z,1.05
2022-11-17T06:24:38.537Z,1.75
2022-11-17T06:27:34.601Z,1.70
2022-11-17T06:30:28.655Z,1.58
2022-11-17T06:33:17.587Z,1.40
2022-11-17T06:35:52.732Z,1.60
2022-11-17T06:38:42.592Z,1.90
2022-11-17T06:44:04.583Z,1.60
2022-11-17T06:46:48.821Z,1.48
2022-11-17T06:49:29.609Z,1.33
2022-11-17T06:52:11.086Z,1.45
2022-11-17T06:54:51.562Z,1.30
2022-11-17T06:57:31.656Z,1.40
2022-11-17T07:00:12.599Z,2.38
2022-11-17T07:02:53.679Z,1.38
2022-11-17T07:05:34.567Z,1.70
2022-11-17T07:08:15.610Z,1.52
2022-11-17T07:11:01.579Z,1.42
2022-11-17T07:13:56.565Z,1.65
2022-11-17T07:16:43.597Z,1.95
2022-11-17T07:19:17.650Z,1.58
2022-11-17T07:22:04.614Z,2.03
2022-11-17T07:24:45.571Z,2.00
2022-11-17T07:27:26.555Z,1.92
2022-11-17T07:30:14.600Z,1.98
2022-11-17T07:32:53.468Z,2.15
2022-11-17T07:35:42.596Z,2.00
2022-11-17T07:38:22.605Z,2.33
2022-11-17T07:41:05.135Z,2.45
2022-11-17T07:43:45.584Z,2.63
2022-11-17T07:46:26.683Z,1.92
2022-11-17T07:49:13.574Z,2.15
2022-11-17T07:52:08.590Z,2.60
2022-11-17T07:54:55.595Z,2.47
2022-11-17T07:57:31.189Z,2.55
2022-11-17T08:00:18.585Z,2.38
2022-11-17T08:02:52.718Z,2.58
2022-11-17T08:05:44.621Z,2.97
2022-11-17T08:08:18.666Z,2.92
2022-11-17T08:11:10.595Z,2.95
2022-11-17T08:13:45.755Z,2.83
2022-11-17T08:16:37.577Z,2.55
2022-11-17T08:19:11.976Z,2.63
2022-11-17T08:21:58.605Z,3.25
2022-11-17T08:24:32.656Z,2.38
2022-11-17T08:27:20.593Z,3.33
2022-11-17T08:30:01.593Z,2.47
2022-11-17T08:33:00.600Z,2.40
2022-11-17T08:35:55.563Z,2.85
2022-11-17T08:38:43.615Z,3.85
2022-11-17T08:41:25.587Z,2.28
2022-11-17T08:44:19.601Z,3.13
2022-11-17T08:47:07.596Z,3.08
2022-11-17T08:49:48.603Z,3.08
2022-11-17T08:52:43.590Z,3.60
2022-11-17T08:55:35.693Z,3.05
2022-11-17T08:58:27.609Z,2.92
2022-11-17T09:01:07.673Z,2.45
2022-11-17T09:03:52.727Z,2.63
2022-11-17T09:06:32.590Z,2.83
2022-11-17T09:09:20.625Z,3.67
2022-11-17T09:11:54.564Z,3.70
2022-11-17T09:14:42.590Z,3.90
2022-11-17T09:17:16.629Z,3.55
2022-11-17T09:20:04.612Z,3.63
2022-11-17T09:22:38.540Z,3.67
2022-11-17T09:25:26.615Z,3.20
2022-11-17T09:28:07.589Z,3.47
2022-11-17T09:30:55.636Z,3.30
2022-11-17T09:33:29.584Z,4.65
2022-11-17T09:36:17.586Z,4.22
2022-11-17T09:38:51.836Z,3.33
2022-11-17T09:41:40.601Z,2.50
2022-11-17T09:44:53.631Z,3.03
2022-11-17T09:48:18.622Z,3.10
2022-11-17T09:51:10.614Z,2.85
2022-11-17T09:56:33.606Z,2.53
2022-11-17T09:59:19.606Z,2.83
2022-11-17T10:02:13.613Z,2.70
2022-11-17T10:05:00.622Z,3.25
2022-11-17T10:07:34.985Z,3.28
2022-11-17T10:10:42.626Z,2.83
2022-11-17T10:13:35.831Z,2.95
2022-11-17T10:16:22.600Z,2.58
2022-11-17T10:18:57.273Z,3.20
2022-11-17T10:21:44.600Z,2.38
2022-11-17T10:24:18.685Z,2.45
2022-11-17T10:27:06.603Z,2.58
2022-11-17T10:29:40.719Z,2.75
2022-11-17T10:32:27.617Z,3.03
2022-11-17T10:35:08.636Z,3.28
2022-11-17T10:38:13.605Z,2.80
2022-11-17T10:41:01.583Z,2.70
2022-11-17T10:43:42.543Z,2.92
2022-11-17T10:46:41.578Z,2.90
2022-11-17T10:49:37.621Z,3.70
2022-11-17T10:52:25.619Z,2.80
2022-11-17T10:55:33.625Z,2.50
2022-11-17T10:58:27.846Z,2.80
2022-11-17T11:01:16.735Z,2.95
2022-11-17T11:03:51.594Z,3.15
2022-11-17T11:06:40.592Z,2.97
2022-11-17T11:09:26.633Z,2.95
2022-11-17T11:12:17.658Z,2.95
2022-11-17T11:15:03.644Z,2.63
2022-11-17T11:17:44.761Z,3.05
2022-11-17T11:20:30.613Z,2.83
2022-11-17T11:24:02.598Z,2.97
2022-11-17T11:26:42.386Z,3.30
2022-11-17T11:29:52.606Z,2.70
2022-11-17T11:32:43.590Z,3.00
2022-11-17T11:35:36.781Z,3.15
2022-11-17T11:38:33.607Z,2.78
2022-11-17T11:42:10.690Z,2.90
2022-11-17T11:45:06.606Z,2.80
2022-11-17T11:47:58.719Z,2.65
2022-11-17T11:50:42.614Z,2.85
2022-11-17T11:53:59.643Z,3.17
2022-11-17T11:56:35.357Z,2.95
2022-11-17T11:59:31.595Z,3.33
2022-11-17T12:02:17.682Z,3.00
2022-11-17T12:05:03.896Z,3.33
2022-11-17T12:07:55.639Z,3.05
2022-11-17T12:10:54.690Z,3.45
2022-11-17T12:13:40.047Z,3.15
2022-11-17T12:16:24.692Z,2.92
2022-11-17T12:19:04.607Z,3.22
2022-11-17T12:21:46.442Z,2.83
2022-11-17T12:24:30.611Z,3.13
2022-11-17T12:27:42.705Z,3.10
2022-11-17T12:30:38.604Z,2.58
2022-11-17T12:33:19.754Z,4.05
2022-11-17T12:36:28.697Z,3.83
2022-11-17T12:39:12.722Z,3.28
2022-11-17T12:41:56.630Z,2.90
2022-11-17T12:44:46.715Z,2.50
2022-11-17T12:47:34.630Z,3.40
2022-11-17T12:50:21.641Z,3.22
2022-11-17T12:53:24.638Z,3.40
2022-11-17T12:56:12.625Z,2.92
2022-11-17T12:59:02.627Z,3.22
2022-11-17T13:02:08.714Z,3.30
2022-11-17T13:05:32.673Z,3.00
2022-11-17T13:08:18.726Z,3.40
2022-11-17T13:11:09.620Z,3.72
2022-11-17T13:13:49.801Z,4.72
2022-11-17T13:16:30.619Z,5.28
2022-11-17T13:19:37.641Z,4.80
2022-11-17T13:22:35.364Z,5.07
2022-11-17T13:25:29.945Z,5.00
2022-11-17T13:28:05.841Z,3.67
2022-11-17T13:30:53.647Z,3.47
2022-11-17T13:33:32.323Z,3.78
2022-11-17T13:36:26.624Z,3.45
2022-11-17T13:39:01.728Z,4.00
2022-11-17T13:41:48.622Z,3.97
2022-11-17T13:44:32.644Z,5.53
2022-11-17T13:47:40.632Z,4.30
2022-11-17T13:50:33.646Z,4.85
2022-11-17T13:53:12.706Z,3.63
2022-11-17T13:56:00.617Z,4.32
2022-11-17T13:58:43.842Z,4.18
2022-11-17T14:01:31.702Z,4.80
2022-11-17T14:04:35.622Z,4.93
2022-11-17T14:07:36.710Z,6.82
2022-11-17T14:10:27.665Z,6.13
2022-11-17T14:13:29.630Z,4.95
2022-11-17T14:16:11.627Z,6.07
2022-11-17T14:19:16.648Z,8.38
2022-11-17T14:22:05.638Z,9.05
2022-11-17T14:24:47.694Z,6.88
2022-11-17T14:27:41.646Z,7.78
2022-11-17T14:30:36.639Z,8.43
2022-11-17T14:33:24.626Z,6.20
2022-11-17T14:36:02.705Z,6.50
2022-11-17T14:38:53.643Z,15.50
2022-11-17T14:41:27.707Z,13.00
2022-11-17T14:44:15.645Z,8.65
2022-11-17T14:46:49.714Z,13.95
2022-11-17T14:49:36.683Z,33.90
2022-11-17T14:52:10.713Z,13.95
2022-11-17T14:54:57.606Z,8.68
2022-11-17T14:57:38.667Z,5.28
2022-11-17T15:00:20.711Z,7.90
2022-11-17T15:03:08.720Z,10.45
2022-11-17T15:05:52.668Z,8.88
2022-11-17T15:08:33.816Z,7.07
2022-11-17T15:11:13.657Z,5.90
2022-11-17T15:13:54.770Z,5.40
2022-11-17T15:16:35.666Z,4.20
2022-11-17T15:19:16.788Z,5.25
2022-11-17T15:21:56.657Z,4.80
2022-11-17T15:24:37.700Z,7.25
2022-11-17T15:27:18.632Z,6.05
2022-11-17T15:29:59.725Z,7.25
2022-11-17T15:32:39.630Z,7.43
2022-11-17T15:35:27.646Z,7.15
2022-11-17T15:38:01.600Z,6.18
2022-11-17T15:40:49.635Z,5.75
2022-11-17T15:43:33.661Z,7.18
2022-11-17T15:46:25.631Z,6.90
2022-11-17T15:49:06.650Z,14.82
2022-11-17T15:51:54.674Z,6.90
2022-11-17T15:54:35.669Z,7.30
2022-11-17T15:57:16.746Z,9.90
2022-11-17T15:59:58.641Z,13.80
2022-11-17T16:02:46.648Z,27.83
2022-11-17T16:05:20.697Z,21.80
2022-11-17T16:08:08.668Z,24.10
2022-11-17T16:10:42.596Z,23.88
2022-11-17T16:13:30.678Z,21.20
2022-11-17T16:16:05.399Z,16.20
2022-11-17T16:18:52.627Z,19.00
2022-11-17T16:21:33.656Z,38.30
2022-11-17T16:24:24.636Z,64.10
2022-11-17T16:27:04.659Z,32.67
2022-11-17T16:29:52.643Z,28.13
2022-11-17T16:32:26.592Z,21.38
2022-11-17T16:35:14.643Z,55.88
2022-11-17T16:37:51.562Z,43.42
2022-11-17T16:40:41.655Z,73.07
2022-11-17T16:43:15.599Z,86.10
2022-11-17T16:46:03.663Z,35.45
2022-11-17T16:48:37.608Z,51.80
2022-11-17T16:51:25.659Z,107.57
2022-11-17T16:54:04.940Z,90.65
2022-11-17T16:56:52.704Z,40.83
2022-11-17T16:59:32.655Z,28.85
2022-11-17T17:02:20.704Z,21.13
2022-11-17T17:05:14.634Z,34.75
2022-11-17T17:08:03.660Z,35.47
2022-11-17T17:10:37.748Z,29.77
2022-11-17T17:13:24.660Z,27.98
2022-11-17T17:16:05.654Z,35.05
2022-11-17T17:19:00.663Z,32.13
2022-11-17T17:21:48.656Z,19.80
2022-11-17T17:24:22.724Z,16.17
2022-11-17T17:27:09.684Z,17.05
2022-11-17T17:29:44.166Z,17.35
2022-11-17T17:32:30.663Z,14.18
2022-11-17T17:35:18.664Z,13.10
2022-11-17T17:37:58.653Z,17.83
2022-11-17T17:40:40.742Z,24.15
2022-11-17T17:43:21.651Z,21.23
2022-11-17T17:46:08.453Z,19.35
2022-11-17T17:48:52.691Z,16.00
2022-11-17T17:51:34.753Z,14.70
2022-11-17T17:54:20.656Z,12.93
2022-11-17T17:57:08.629Z,9.70
2022-11-17T17:59:49.653Z,9.68
2022-11-17T18:02:30.724Z,9.23
2022-11-17T18:05:11.672Z,10.10
2022-11-17T18:07:59.657Z,10.13
2022-11-17T18:10:39.665Z,8.10
2022-11-17T18:13:20.754Z,7.78
2022-11-17T18:16:00.668Z,8.15
2022-11-17T18:18:48.665Z,8.80
2022-11-17T18:21:28.678Z,9.02
2022-11-17T18:24:09.772Z,9.55
2022-11-17T18:26:50.644Z,10.15
2022-11-17T18:29:31.738Z,14.07
2022-11-17T18:32:11.663Z,13.50
2022-11-17T18:34:52.735Z,10.90
2022-11-17T18:37:39.677Z,7.88
2022-11-17T18:40:20.659Z,7.75
2022-11-17T18:43:14.701Z,7.35
2022-11-17T18:46:01.738Z,7.55
2022-11-17T18:48:44.675Z,7.35
2022-11-17T18:51:32.648Z,5.75
2022-11-17T18:54:08.005Z,5.30
2022-11-17T18:56:56.679Z,6.20
2022-11-17T18:59:30.780Z,4.65
2022-11-17T19:02:17.692Z,5.50
2022-11-17T19:04:51.742Z,4.07
2022-11-17T19:07:39.699Z,5.00
2022-11-17T19:10:20.670Z,4.65
2022-11-17T19:13:14.681Z,5.28
2022-11-17T19:16:01.672Z,6.32
2022-11-17T19:18:42.678Z,7.32
2022-11-17T19:21:43.654Z,7.68
2022-11-17T19:24:31.694Z,7.07
2022-11-17T19:27:05.727Z,7.30
2022-11-17T19:29:52.672Z,25.70
2022-11-17T19:32:26.965Z,23.98
2022-11-17T19:35:19.765Z,11.80
2022-11-17T19:37:57.695Z,16.90
2022-11-17T19:40:45.646Z,11.82
2022-11-17T19:43:19.850Z,13.10
2022-11-17T19:46:07.682Z,8.30
2022-11-17T19:48:41.755Z,7.97
2022-11-17T19:51:30.674Z,6.85
2022-11-17T19:54:05.779Z,7.72
2022-11-17T19:56:53.672Z,6.30
2022-11-17T19:59:27.865Z,5.18
2022-11-17T20:02:19.686Z,4.75
2022-11-17T20:04:53.750Z,5.10
2022-11-17T20:07:40.755Z,6.35
2022-11-17T20:10:14.758Z,9.65
2022-11-17T20:13:01.651Z,11.13
2022-11-17T20:15:36.411Z,8.13
2022-11-17T20:18:22.666Z,9.32
2022-11-17T20:20:56.770Z,13.25
2022-11-17T20:23:44.675Z,9.90
2022-11-17T20:26:19.736Z,12.65
2022-11-17T20:29:07.660Z,13.90
2022-11-17T20:31:49.655Z,11.10
2022-11-17T20:34:36.690Z,5.97
2022-11-17T20:37:10.741Z,6.25
2022-11-17T20:39:57.669Z,7.07
2022-11-17T20:42:38.763Z,8.45
2022-11-17T20:45:18.670Z,9.38
2022-11-17T20:48:06.700Z,14.82
2022-11-17T20:50:46.763Z,11.77
2022-11-17T20:53:34.698Z,11.02
2022-11-17T20:56:16.686Z,10.07
2022-11-17T20:58:57.745Z,9.15
2022-11-17T21:01:40.034Z,8.80
2022-11-17T21:04:20.767Z,11.40
2022-11-17T21:07:01.835Z,10.93
2022-11-17T21:09:49.690Z,8.68
2022-11-17T21:12:23.607Z,11.30
2022-11-17T21:15:11.666Z,10.45
2022-11-17T21:18:10.649Z,10.45
2022-11-17T21:20:51.756Z,12.30
2022-11-17T21:23:32.666Z,11.23
2022-11-17T21:26:21.697Z,10.88
2022-11-17T21:29:06.460Z,12.47
2022-11-17T21:31:47.843Z,12.00
2022-11-17T21:34:28.672Z,13.15
2022-11-17T21:37:16.659Z,9.75
2022-11-17T21:39:52.139Z,10.52
2022-11-17T21:42:39.663Z,7.55
2022-11-17T21:45:21.659Z,6.95
2022-11-17T21:48:02.768Z,8.15
2022-11-17T21:50:43.697Z,6.10
2022-11-17T21:53:31.675Z,7.10
2022-11-17T21:56:13.660Z,7.43
2022-11-17T21:58:54.842Z,7.45
2022-11-17T22:01:36.823Z,7.03
2022-11-17T22:04:25.682Z,11.05
2022-11-17T22:07:05.778Z,7.28
2022-11-17T22:09:46.998Z,6.72
2022-11-17T22:12:27.693Z,6.05
2022-11-17T22:15:15.666Z,7.10
2022-11-17T22:17:49.708Z,8.60
2022-11-17T22:20:36.690Z,7.85
2022-11-17T22:23:10.662Z,6.38
2022-11-17T22:25:58.691Z,7.97
2022-11-17T22:28:32.772Z,6.95
2022-11-17T22:31:21.688Z,6.93
2022-11-17T22:33:55.661Z,6.28
2022-11-17T22:36:43.665Z,6.47
2022-11-17T22:39:17.956Z,6.32
2022-11-17T22:42:05.693Z,5.00
2022-11-17T22:44:53.705Z,6.75
2022-11-17T22:47:34.669Z,6.05
2022-11-17T22:50:28.681Z,5.05
2022-11-17T22:53:15.703Z,6.35
2022-11-17T22:55:49.756Z,7.28
2022-11-17T22:58:37.678Z,7.72
2022-11-17T23:01:12.759Z,6.50
2022-11-17T23:04:00.708Z,6.20
2022-11-17T23:06:34.779Z,6.60
2022-11-17T23:09:21.673Z,6.18
2022-11-17T23:11:55.779Z,7.20
2022-11-17T23:14:42.680Z,7.25
2022-11-17T23:17:23.676Z,5.97
2022-11-17T23:20:18.679Z,6.22
2022-11-17T23:23:05.671Z,7.18
2022-11-17T23:25:39.749Z,6.88
2022-11-17T23:28:26.667Z,7.78
2022-11-17T23:31:04.788Z,7.18
2022-11-17T23:33:53.695Z,4.70
2022-11-17T23:36:28.841Z,6.40
2022-11-17T23:39:16.977Z,6.90
2022-11-17T23:41:57.674Z,2.72
2022-11-17T23:44:44.683Z,0.93
2022-11-17T23:47:32.664Z,1.02
2022-11-17T23:50:13.700Z,1.17
2022-11-17T23:53:01.681Z,1.17
2022-11-17T23:55:35.611Z,1.35
2022-11-17T23:58:23.682Z,1.30
